createdAt,value
2023-05-15T00:00:21.142Z,9.82
2023-05-15T00:02:50.430Z,9.77
2023-05-15T00:05:20.091Z,9.74
2023-05-15T00:07:48.776Z,9.73
2023-05-15T00:10:16.875Z,9.73
2023-05-15T00:12:44.908Z,9.71
2023-05-15T00:15:13.162Z,9.68
2023-05-15T00:17:45.297Z,9.62
2023-05-15T00:20:14.902Z,9.61
2023-05-15T00:22:45.133Z,9.54
2023-05-15T00:25:17.458Z,9.48
2023-05-15T00:27:47.216Z,9.47
2023-05-15T00:30:16.393Z,9.43
2023-05-15T00:32:46.027Z,9.37
2023-05-15T00:35:15.818Z,9.31
2023-05-15T00:37:46.308Z,9.26
2023-05-15T00:40:21.663Z,9.20
2023-05-15T00:42:50.735Z,9.10
2023-05-15T00:45:19.328Z,9.08
2023-05-15T00:47:49.209Z,9.03
2023-05-15T00:50:17.462Z,9.08
2023-05-15T00:52:47.163Z,9.18
2023-05-15T00:55:15.316Z,9.19
2023-05-15T00:57:44.730Z,9.15
2023-05-15T01:00:20.744Z,9.09
2023-05-15T01:02:51.154Z,8.99
2023-05-15T01:05:19.367Z,8.93
2023-05-15T01:07:54.488Z,8.92
2023-05-15T01:10:23.022Z,8.85
2023-05-15T01:12:55.555Z,8.88
2023-05-15T01:15:24.744Z,8.92
2023-05-15T01:17:54.607Z,8.88
2023-05-15T01:20:23.795Z,8.81
2023-05-15T01:22:55.578Z,8.76
2023-05-15T01:25:55.803Z,8.72
2023-05-15T01:28:29.096Z,8.62
2023-05-15T01:30:57.553Z,8.52
2023-05-15T01:33:27.836Z,8.51
2023-05-15T01:36:04.240Z,8.42
2023-05-15T01:38:37.006Z,8.36
2023-05-15T01:41:12.332Z,8.30
2023-05-15T01:43:47.108Z,8.20
2023-05-15T01:46:18.420Z,8.13
2023-05-15T01:48:48.555Z,8.11
2023-05-15T01:51:18.232Z,8.10
2023-05-15T01:53:46.919Z,8.17
2023-05-15T01:56:16.863Z,8.23
2023-05-15T01:58:48.578Z,8.24
2023-05-15T02:01:17.060Z,8.26
2023-05-15T02:03:47.838Z,8.27
2023-05-15T02:06:16.642Z,8.24
2023-05-15T02:08:46.106Z,8.20
2023-05-15T02:11:14.976Z,8.10
2023-05-15T02:13:44.584Z,8.03
2023-05-15T02:16:14.502Z,7.96
2023-05-15T02:18:42.868Z,7.89
2023-05-15T02:21:11.111Z,7.92
2023-05-15T02:23:40.972Z,7.85
2023-05-15T02:26:25.192Z,7.90
2023-05-15T02:29:01.240Z,7.92
2023-05-15T02:31:37.255Z,7.87
2023-05-15T02:34:12.434Z,7.83
2023-05-15T02:36:43.743Z,7.79
2023-05-15T02:39:12.610Z,7.76
2023-05-15T02:41:41.596Z,7.75
2023-05-15T02:44:09.705Z,7.78
2023-05-15T02:46:41.757Z,7.79
2023-05-15T02:49:10.718Z,7.79
2023-05-15T02:51:39.297Z,7.79
2023-05-15T02:54:09.563Z,7.73
2023-05-15T02:56:37.707Z,7.73
2023-05-15T02:59:07.418Z,7.75
2023-05-15T03:01:36.198Z,7.73
2023-05-15T03:04:06.975Z,7.76
2023-05-15T03:06:36.726Z,7.73
2023-05-15T03:09:05.029Z,7.71
2023-05-15T03:11:35.850Z,7.69
2023-05-15T03:14:04.390Z,7.62
2023-05-15T03:16:34.269Z,7.59
2023-05-15T03:19:02.709Z,7.61
2023-05-15T03:21:32.659Z,7.59
2023-05-15T03:24:00.843Z,7.55
2023-05-15T03:26:31.986Z,7.55
2023-05-15T03:29:00.488Z,7.52
2023-05-15T03:31:34.355Z,7.48
2023-05-15T03:34:05.265Z,7.56
2023-05-15T03:36:35.017Z,7.56
2023-05-15T03:39:03.201Z,7.63
2023-05-15T03:41:34.107Z,7.78
2023-05-15T03:44:03.598Z,7.93
2023-05-15T03:46:31.844Z,8.06
2023-05-15T03:49:00.537Z,8.24
2023-05-15T03:51:31.095Z,8.45
2023-05-15T03:54:01.444Z,8.68
2023-05-15T03:56:29.792Z,9.02
2023-05-15T03:58:58.312Z,9.37
2023-05-15T04:01:26.507Z,9.73
2023-05-15T04:03:58.142Z,10.13
2023-05-15T04:06:26.253Z,10.57
2023-05-15T04:08:54.564Z,10.99
2023-05-15T04:11:25.555Z,11.50
2023-05-15T04:13:54.129Z,11.98
2023-05-15T04:16:22.548Z,12.41
2023-05-15T04:18:51.251Z,12.77
2023-05-15T04:21:20.567Z,13.23
2023-05-15T04:23:48.725Z,13.66
2023-05-15T04:26:17.308Z,14.05
2023-05-15T04:29:00.057Z,14.48
2023-05-15T04:31:36.548Z,14.99
2023-05-15T04:34:08.226Z,15.47
2023-05-15T04:36:36.897Z,15.82
2023-05-15T04:39:05.291Z,16.15
2023-05-15T04:41:33.636Z,16.50
2023-05-15T04:44:03.383Z,16.88
2023-05-15T04:46:34.785Z,17.29
2023-05-15T04:49:03.248Z,17.53
2023-05-15T04:51:32.957Z,17.74
2023-05-15T04:54:01.289Z,18.04
2023-05-15T04:56:29.803Z,18.29
2023-05-15T04:58:58.442Z,18.58
2023-05-15T05:01:28.235Z,18.90
2023-05-15T05:03:56.409Z,19.20
2023-05-15T05:06:25.068Z,19.43
2023-05-15T05:08:53.131Z,19.66
2023-05-15T05:11:22.628Z,19.99
2023-05-15T05:13:51.623Z,20.20
2023-05-15T05:16:20.037Z,20.55
2023-05-15T05:18:49.587Z,20.92
2023-05-15T05:21:18.144Z,21.33
2023-05-15T05:23:47.383Z,21.54
2023-05-15T05:26:15.659Z,21.54
2023-05-15T05:28:43.749Z,21.69
2023-05-15T05:31:12.123Z,21.70
2023-05-15T05:33:40.818Z,21.86
2023-05-15T05:36:11.815Z,22.14
2023-05-15T05:38:42.412Z,22.46
2023-05-15T05:41:10.450Z,22.97
2023-05-15T05:43:38.741Z,23.38
2023-05-15T05:46:07.543Z,23.44
2023-05-15T05:48:36.698Z,22.99
2023-05-15T05:51:05.353Z,22.86
2023-05-15T05:53:35.786Z,22.83
2023-05-15T05:56:05.353Z,23.14
2023-05-15T05:58:33.580Z,23.64
2023-05-15T06:01:02.083Z,23.91
2023-05-15T06:03:31.212Z,24.37
2023-05-15T06:05:59.947Z,24.81
2023-05-15T06:08:32.389Z,25.17
2023-05-15T06:11:02.202Z,25.53
2023-05-15T06:13:30.586Z,25.36
2023-05-15T06:15:58.584Z,25.58
2023-05-15T06:18:29.225Z,25.86
2023-05-15T06:21:00.319Z,26.17
2023-05-15T06:23:29.099Z,26.44
2023-05-15T06:25:58.382Z,26.76
2023-05-15T06:28:29.273Z,27.04
2023-05-15T06:30:57.365Z,27.34
2023-05-15T06:33:26.534Z,27.58
2023-05-15T06:35:54.829Z,27.77
2023-05-15T06:38:23.565Z,27.98
2023-05-15T06:40:52.211Z,28.15
2023-05-15T06:43:23.306Z,28.29
2023-05-15T06:45:54.278Z,28.42
2023-05-15T06:48:22.753Z,28.59
2023-05-15T06:50:51.540Z,28.72
2023-05-15T06:53:21.024Z,28.79
2023-05-15T06:55:49.079Z,28.80
2023-05-15T06:58:19.274Z,28.83
2023-05-15T07:00:47.931Z,28.70
2023-05-15T07:03:17.716Z,28.77
2023-05-15T07:05:49.469Z,28.87
2023-05-15T07:08:17.942Z,29.07
2023-05-15T07:10:46.399Z,29.18
2023-05-15T07:13:14.421Z,29.21
2023-05-15T07:15:42.573Z,29.20
2023-05-15T07:18:11.152Z,29.18
2023-05-15T07:20:42.489Z,29.27
2023-05-15T07:23:11.063Z,29.41
2023-05-15T07:25:40.837Z,29.57
2023-05-15T07:28:11.963Z,29.53
2023-05-15T07:30:40.036Z,29.48
2023-05-15T07:33:08.285Z,29.30
2023-05-15T07:35:36.550Z,29.15
2023-05-15T07:38:07.191Z,28.86
2023-05-15T07:40:36.873Z,28.50
2023-05-15T07:43:05.193Z,28.01
2023-05-15T07:45:35.763Z,27.43
2023-05-15T07:48:15.418Z,27.03
2023-05-15T07:50:43.792Z,26.78
2023-05-15T07:53:13.943Z,26.58
2023-05-15T07:55:42.540Z,26.44
2023-05-15T07:58:11.232Z,26.45
2023-05-15T08:00:41.027Z,26.51
2023-05-15T08:03:09.721Z,26.60
2023-05-15T08:05:37.847Z,26.49
2023-05-15T08:08:08.282Z,26.60
2023-05-15T08:10:37.889Z,26.73
2023-05-15T08:13:06.013Z,26.76
2023-05-15T08:15:34.448Z,26.65
2023-05-15T08:18:02.944Z,26.55
2023-05-15T08:20:31.590Z,26.23
2023-05-15T08:22:59.973Z,26.05
2023-05-15T08:25:30.884Z,25.93
2023-05-15T08:28:03.658Z,25.96
2023-05-15T08:30:32.065Z,26.23
2023-05-15T08:33:02.806Z,26.60
2023-05-15T08:35:31.282Z,26.79
2023-05-15T08:37:59.722Z,26.98
2023-05-15T08:43:03.778Z,27.50
2023-05-15T08:45:32.191Z,27.77
2023-05-15T08:48:05.390Z,28.14
2023-05-15T08:50:34.263Z,28.52
2023-05-15T08:53:03.282Z,28.55
2023-05-15T08:55:34.004Z,28.40
2023-05-15T08:58:03.745Z,28.09
2023-05-15T09:00:32.168Z,27.76
2023-05-15T09:03:01.928Z,27.70
2023-05-15T09:05:32.972Z,27.48
2023-05-15T09:08:05.546Z,27.22
2023-05-15T09:10:36.171Z,27.06
2023-05-15T09:13:07.699Z,26.90
2023-05-15T09:15:37.397Z,26.69
2023-05-15T09:18:07.903Z,26.38
2023-05-15T09:20:37.556Z,26.23
2023-05-15T09:23:06.764Z,26.00
2023-05-15T09:25:38.741Z,25.80
2023-05-15T09:28:09.719Z,25.66
2023-05-15T09:30:39.407Z,25.49
2023-05-15T09:33:08.289Z,25.39
2023-05-15T09:35:38.405Z,25.34
2023-05-15T09:38:10.617Z,25.29
2023-05-15T09:40:41.063Z,25.22
2023-05-15T09:43:13.076Z,25.19
2023-05-15T09:45:48.503Z,25.07
2023-05-15T09:48:19.166Z,24.97
2023-05-15T09:50:48.867Z,24.84
2023-05-15T09:53:21.412Z,24.80
2023-05-15T09:55:50.443Z,24.78
2023-05-15T09:58:21.820Z,24.86
2023-05-15T10:00:49.949Z,24.76
2023-05-15T10:03:22.821Z,24.57
2023-05-15T10:05:50.950Z,24.60
2023-05-15T10:08:27.704Z,24.71
2023-05-15T10:10:57.328Z,24.78
2023-05-15T10:13:29.968Z,24.86
2023-05-15T10:15:59.247Z,25.05
2023-05-15T10:18:29.920Z,25.26
2023-05-15T10:21:01.388Z,25.17
2023-05-15T10:23:32.683Z,25.14
2023-05-15T10:26:05.521Z,25.31
2023-05-15T10:28:37.148Z,25.52
2023-05-15T10:31:06.148Z,25.67
2023-05-15T10:33:37.259Z,25.65
2023-05-15T10:36:07.313Z,25.72
2023-05-15T10:38:37.725Z,25.86
2023-05-15T10:41:17.331Z,26.00
2023-05-15T10:43:48.663Z,26.04
2023-05-15T10:46:17.938Z,26.12
2023-05-15T10:48:46.173Z,26.18
2023-05-15T10:51:18.999Z,26.37
2023-05-15T10:53:48.654Z,26.33
2023-05-15T10:56:18.765Z,26.48
2023-05-15T10:58:54.337Z,26.85
2023-05-15T11:01:29.469Z,26.98
2023-05-15T11:04:14.250Z,27.08
2023-05-15T11:06:46.570Z,27.16
2023-05-15T11:09:37.474Z,27.60
2023-05-15T11:12:12.384Z,27.87
2023-05-15T11:14:44.418Z,28.12
2023-05-15T11:17:15.130Z,28.69
2023-05-15T11:19:59.009Z,29.13
2023-05-15T11:22:30.033Z,29.18
2023-05-15T11:25:01.249Z,29.20
2023-05-15T11:27:31.869Z,29.15
2023-05-15T11:30:22.977Z,29.07
2023-05-15T11:32:53.524Z,29.05
2023-05-15T11:35:24.136Z,29.01
2023-05-15T11:37:56.374Z,28.74
2023-05-15T11:40:27.833Z,27.23
2023-05-15T11:43:08.248Z,26.41
2023-05-15T11:45:41.618Z,26.24
2023-05-15T11:48:14.232Z,25.92
2023-05-15T11:50:43.349Z,25.83
2023-05-15T11:53:13.050Z,25.84
2023-05-15T11:55:43.867Z,25.49
2023-05-15T11:58:13.764Z,25.19
2023-05-15T12:00:44.019Z,24.81
2023-05-15T12:03:20.339Z,23.78
2023-05-15T12:05:58.132Z,23.04
2023-05-15T12:08:34.152Z,22.21
2023-05-15T12:11:03.258Z,22.00
2023-05-15T12:13:32.110Z,21.80
2023-05-15T12:16:03.831Z,21.47
2023-05-15T12:18:33.401Z,21.42
2023-05-15T12:21:02.391Z,21.50
2023-05-15T12:23:31.000Z,21.70
2023-05-15T12:26:01.158Z,21.83
2023-05-15T12:28:30.244Z,21.86
2023-05-15T12:30:59.191Z,21.84
2023-05-15T12:33:31.014Z,21.49
2023-05-15T12:36:01.626Z,21.14
2023-05-15T12:38:30.586Z,20.88
2023-05-15T12:40:58.922Z,20.67
2023-05-15T12:43:27.774Z,20.50
2023-05-15T12:45:56.715Z,20.34
2023-05-15T12:48:24.845Z,20.12
2023-05-15T12:50:54.237Z,20.10
2023-05-15T12:53:22.897Z,20.26
2023-05-15T12:55:52.485Z,20.39
2023-05-15T12:58:21.110Z,20.55
2023-05-15T13:00:50.862Z,20.43
2023-05-15T13:03:21.351Z,20.50
2023-05-15T13:05:49.655Z,20.59
2023-05-15T13:08:19.993Z,20.61
2023-05-15T13:10:48.647Z,20.78
2023-05-15T13:13:18.784Z,20.99
2023-05-15T13:15:46.945Z,21.26
2023-05-15T13:18:17.628Z,21.47
2023-05-15T13:20:48.824Z,21.71
2023-05-15T13:23:20.046Z,21.88
2023-05-15T13:25:48.353Z,22.10
2023-05-15T13:28:17.364Z,22.16
2023-05-15T13:30:46.819Z,22.24
2023-05-15T13:33:15.129Z,22.27
2023-05-15T13:35:46.201Z,22.31
2023-05-15T13:38:14.875Z,22.42
2023-05-15T13:40:44.212Z,22.48
2023-05-15T13:43:12.514Z,22.59
2023-05-15T13:45:41.770Z,22.65
2023-05-15T13:48:10.049Z,22.72
2023-05-15T13:50:38.105Z,22.76
2023-05-15T13:53:06.369Z,22.87
2023-05-15T13:55:34.412Z,22.89
2023-05-15T13:58:04.280Z,23.00
2023-05-15T14:00:32.893Z,23.12
2023-05-15T14:03:15.111Z,23.16
2023-05-15T14:05:44.110Z,23.27
2023-05-15T14:08:12.380Z,23.37
2023-05-15T14:10:40.522Z,23.35
2023-05-15T14:13:12.256Z,23.31
2023-05-15T14:15:40.723Z,23.31
2023-05-15T14:18:10.748Z,23.41
2023-05-15T14:20:38.865Z,23.44
2023-05-15T14:23:07.174Z,23.20
2023-05-15T14:25:36.805Z,21.60
2023-05-15T14:28:05.100Z,20.16
2023-05-15T14:30:35.103Z,19.23
2023-05-15T14:33:05.934Z,18.75
2023-05-15T14:35:35.217Z,18.22
2023-05-15T14:38:05.837Z,17.80
2023-05-15T14:40:34.168Z,17.65
2023-05-15T14:43:03.176Z,17.48
2023-05-15T14:45:31.624Z,17.39
2023-05-15T14:48:01.171Z,17.41
2023-05-15T14:50:30.791Z,17.31
2023-05-15T14:52:58.952Z,17.28
2023-05-15T14:55:27.060Z,17.21
2023-05-15T14:57:56.169Z,17.10
2023-05-15T15:00:24.624Z,17.11
2023-05-15T15:02:53.288Z,17.15
2023-05-15T15:05:24.272Z,17.11
2023-05-15T15:08:00.242Z,17.07
2023-05-15T15:10:28.862Z,17.15
2023-05-15T15:12:57.243Z,17.22
2023-05-15T15:15:25.846Z,17.24
2023-05-15T15:17:54.229Z,17.18
2023-05-15T15:20:26.398Z,17.21
2023-05-15T15:22:55.160Z,17.28
2023-05-15T15:25:24.972Z,17.32
2023-05-15T15:27:53.393Z,17.36
2023-05-15T15:30:25.267Z,17.39
2023-05-15T15:32:54.701Z,17.39
2023-05-15T15:35:24.861Z,17.45
2023-05-15T15:37:55.218Z,17.55
2023-05-15T15:40:24.608Z,17.55
2023-05-15T15:42:54.314Z,17.59
2023-05-15T15:45:23.681Z,17.62
2023-05-15T15:47:51.825Z,17.66
2023-05-15T15:50:19.945Z,17.69
2023-05-15T15:52:51.810Z,17.69
2023-05-15T15:55:20.041Z,17.70
2023-05-15T15:57:51.229Z,17.69
2023-05-15T16:00:19.810Z,17.65
2023-05-15T16:02:48.258Z,17.59
2023-05-15T16:05:16.358Z,17.49
2023-05-15T16:07:44.432Z,17.29
2023-05-15T16:10:20.534Z,17.10
2023-05-15T16:12:49.263Z,16.87
2023-05-15T16:15:22.465Z,16.59
2023-05-15T16:17:54.947Z,16.42
2023-05-15T16:20:24.073Z,16.29
2023-05-15T16:22:52.767Z,16.22
2023-05-15T16:25:23.590Z,16.12
2023-05-15T16:27:51.587Z,16.01
2023-05-15T16:30:20.166Z,15.90
2023-05-15T16:32:48.690Z,15.67
2023-05-15T16:35:16.981Z,15.51
2023-05-15T16:37:45.383Z,15.39
2023-05-15T16:40:14.193Z,15.25
2023-05-15T16:42:45.027Z,15.10
2023-05-15T16:45:16.376Z,15.05
2023-05-15T16:47:44.473Z,14.96
2023-05-15T16:50:14.233Z,14.85
2023-05-15T16:52:45.982Z,14.82
2023-05-15T16:55:17.632Z,14.74
2023-05-15T16:57:47.742Z,14.68
2023-05-15T17:00:20.001Z,14.63
2023-05-15T17:02:49.191Z,14.58
2023-05-15T17:05:20.728Z,14.54
2023-05-15T17:07:49.389Z,14.51
2023-05-15T17:10:25.273Z,14.51
2023-05-15T17:12:56.126Z,14.42
2023-05-15T17:15:24.432Z,14.34
2023-05-15T17:17:52.869Z,14.31
2023-05-15T17:20:21.157Z,14.26
2023-05-15T17:22:49.230Z,14.23
2023-05-15T17:25:19.161Z,14.12
2023-05-15T17:27:47.948Z,14.03
2023-05-15T17:30:18.802Z,13.95
2023-05-15T17:32:46.917Z,13.96
2023-05-15T17:35:15.733Z,14.00
2023-05-15T17:37:46.227Z,13.99
2023-05-15T17:40:17.377Z,13.98
2023-05-15T17:42:45.898Z,14.02
2023-05-15T17:45:26.792Z,14.02
2023-05-15T17:48:02.705Z,14.02
2023-05-15T17:50:30.940Z,13.92
2023-05-15T17:52:59.687Z,13.85
2023-05-15T17:55:28.073Z,13.83
2023-05-15T17:57:56.189Z,13.88
2023-05-15T18:00:26.068Z,13.85
2023-05-15T18:02:54.137Z,13.85
2023-05-15T18:05:26.862Z,13.86
2023-05-15T18:07:56.594Z,13.86
2023-05-15T18:10:26.375Z,13.89
2023-05-15T18:12:54.555Z,13.86
2023-05-15T18:15:22.746Z,13.92
2023-05-15T18:17:51.188Z,13.89
2023-05-15T18:20:19.705Z,13.85
2023-05-15T18:22:49.872Z,13.85
2023-05-15T18:25:18.792Z,13.85
2023-05-15T18:27:47.611Z,13.83
2023-05-15T18:30:15.963Z,13.82
2023-05-15T18:32:44.126Z,13.79
2023-05-15T18:35:12.412Z,13.78
2023-05-15T18:37:40.596Z,13.75
2023-05-15T18:40:11.680Z,13.76
2023-05-15T18:42:39.817Z,13.81
2023-05-15T18:45:09.401Z,13.76
2023-05-15T18:47:37.522Z,13.73
2023-05-15T18:50:06.652Z,13.75
2023-05-15T18:52:34.937Z,13.75
2023-05-15T18:55:04.462Z,13.72
2023-05-15T18:57:33.946Z,13.68
2023-05-15T19:00:02.317Z,13.63
2023-05-15T19:02:30.455Z,13.62
2023-05-15T19:04:59.072Z,13.57
2023-05-15T19:07:32.756Z,13.51
2023-05-15T19:10:01.160Z,13.48
2023-05-15T19:12:29.868Z,13.47
2023-05-15T19:15:10.399Z,13.51
2023-05-15T19:17:39.768Z,13.49
2023-05-15T19:20:09.919Z,13.51
2023-05-15T19:22:38.358Z,13.52
2023-05-15T19:25:07.682Z,13.47
2023-05-15T19:27:35.690Z,13.52
2023-05-15T19:30:15.107Z,13.47
2023-05-15T19:32:45.205Z,13.47
2023-05-15T19:35:14.404Z,13.41
2023-05-15T19:37:46.020Z,13.38
2023-05-15T19:40:15.551Z,13.41
2023-05-15T19:42:43.530Z,13.35
2023-05-15T19:45:18.348Z,13.41
2023-05-15T19:47:46.521Z,13.41
2023-05-15T19:50:18.080Z,13.41
2023-05-15T19:52:46.333Z,13.40
2023-05-15T19:55:17.847Z,13.40
2023-05-15T19:57:55.029Z,13.38
2023-05-15T20:00:26.808Z,13.35
2023-05-15T20:02:55.590Z,13.35
2023-05-15T20:05:23.705Z,13.32
2023-05-15T20:07:53.052Z,13.32
2023-05-15T20:10:22.646Z,13.32
2023-05-15T20:12:50.925Z,13.31
2023-05-15T20:15:19.315Z,13.30
2023-05-15T20:17:48.823Z,13.28
2023-05-15T20:20:18.732Z,13.28
2023-05-15T20:22:47.324Z,13.26
2023-05-15T20:25:16.871Z,13.26
2023-05-15T20:27:45.280Z,13.26
2023-05-15T20:30:13.442Z,13.23
2023-05-15T20:32:42.716Z,13.19
2023-05-15T20:35:14.434Z,13.20
2023-05-15T20:37:43.056Z,13.17
2023-05-15T20:40:12.815Z,13.11
2023-05-15T20:42:41.473Z,13.08
2023-05-15T20:45:10.723Z,13.08
2023-05-15T20:47:38.779Z,13.08
2023-05-15T20:50:08.127Z,13.06
2023-05-15T20:52:37.860Z,13.01
2023-05-15T20:55:17.461Z,12.94
2023-05-15T20:57:48.138Z,12.91
2023-05-15T21:00:17.146Z,12.89
2023-05-15T21:02:46.366Z,12.86
2023-05-15T21:05:15.790Z,12.83
2023-05-15T21:07:46.485Z,12.76
2023-05-15T21:10:15.083Z,12.70
2023-05-15T21:12:43.566Z,12.66
2023-05-15T21:15:12.128Z,12.61
2023-05-15T21:17:42.196Z,12.58
2023-05-15T21:20:11.097Z,12.53
2023-05-15T21:22:39.977Z,12.48
2023-05-15T21:25:11.228Z,12.44
2023-05-15T21:27:39.402Z,12.38
2023-05-15T21:30:09.539Z,12.38
2023-05-15T21:32:39.574Z,12.39
2023-05-15T21:35:08.701Z,12.35
2023-05-15T21:37:37.058Z,12.31
2023-05-15T21:40:06.678Z,12.33
2023-05-15T21:42:36.334Z,12.35
2023-05-15T21:45:06.852Z,12.35
2023-05-15T21:47:35.162Z,12.39
2023-05-15T21:50:04.036Z,12.44
2023-05-15T21:52:32.170Z,12.48
2023-05-15T21:55:00.887Z,12.49
2023-05-15T21:57:32.617Z,12.49
2023-05-15T22:00:02.450Z,12.48
2023-05-15T22:02:31.059Z,12.45
2023-05-15T22:05:01.151Z,12.46
2023-05-15T22:07:30.936Z,12.42
2023-05-15T22:10:00.384Z,12.42
2023-05-15T22:12:28.882Z,12.39
2023-05-15T22:14:59.667Z,12.39
2023-05-15T22:17:30.892Z,12.39
2023-05-15T22:20:07.543Z,12.36
2023-05-15T22:22:36.863Z,12.39
2023-05-15T22:25:07.984Z,12.38
2023-05-15T22:27:36.290Z,12.35
2023-05-15T22:30:04.818Z,12.32
2023-05-15T22:32:34.728Z,12.29
2023-05-15T22:35:03.992Z,12.25
2023-05-15T22:37:32.083Z,12.25
2023-05-15T22:40:00.622Z,12.21
2023-05-15T22:42:29.118Z,12.18
2023-05-15T22:44:58.133Z,12.14
2023-05-15T22:47:28.234Z,12.10
2023-05-15T22:49:59.411Z,12.08
2023-05-15T22:52:27.799Z,12.03
2023-05-15T22:54:55.972Z,12.03
2023-05-15T22:57:24.300Z,12.00
2023-05-15T22:59:52.340Z,11.94
2023-05-15T23:02:20.428Z,11.90
2023-05-15T23:04:49.208Z,11.84
2023-05-15T23:07:18.626Z,11.83
2023-05-15T23:09:46.813Z,11.82
2023-05-15T23:12:14.953Z,11.84
2023-05-15T23:14:43.069Z,11.80
2023-05-15T23:17:11.520Z,11.82
2023-05-15T23:19:40.168Z,11.82
2023-05-15T23:22:08.145Z,11.80
2023-05-15T23:24:40.272Z,11.76
2023-05-15T23:27:08.529Z,11.73
2023-05-15T23:29:37.992Z,11.76
2023-05-15T23:32:07.590Z,11.77
2023-05-15T23:34:36.955Z,11.77
2023-05-15T23:37:05.748Z,11.74
2023-05-15T23:39:37.366Z,11.73
2023-05-15T23:42:10.915Z,11.73
2023-05-15T23:44:40.083Z,11.71
2023-05-15T23:47:09.552Z,11.70
2023-05-15T23:49:38.249Z,11.73
2023-05-15T23:52:08.787Z,11.73
2023-05-15T23:54:37.385Z,11.71
2023-05-15T23:57:06.882Z,11.66
2023-05-15T23:59:36.327Z,11.66
